createdAt,value
2018-02-27T00:02:21.222Z,-8.2
2018-02-27T00:07:21.434Z,-8.1
2018-02-27T00:12:21.195Z,-8.1
2018-02-27T00:17:21.222Z,-8.1
2018-02-27T00:22:21.448Z,-8.1
2018-02-27T00:27:21.259Z,-8.3
2018-02-27T00:32:21.375Z,-8.2
2018-02-27T00:37:21.479Z,-8.1
2018-02-27T00:42:21.525Z,-8.1
2018-02-27T00:47:21.351Z,-8.2
2018-02-27T00:52:21.269Z,-8.4
2018-02-27T00:57:21.476Z,-8.4
2018-02-27T01:02:21.363Z,-8.6
2018-02-27T01:07:21.431Z,-8.6
2018-02-27T01:12:21.477Z,-8.7
2018-02-27T01:17:21.393Z,-8.9
2018-02-27T01:22:21.431Z,-8.8
2018-02-27T01:27:21.378Z,-8.9
2018-02-27T01:32:21.446Z,-9.1
2018-02-27T01:37:21.517Z,-9.1
2018-02-27T01:42:21.348Z,-9.1
2018-02-27T01:47:21.349Z,-9.2
2018-02-27T01:52:21.349Z,-9.4
2018-02-27T01:57:21.570Z,-9.4
2018-02-27T02:02:21.470Z,-9.4
2018-02-27T02:07:21.545Z,-9.4
2018-02-27T02:12:21.506Z,-9.4
2018-02-27T02:17:21.702Z,-9.4
2018-02-27T02:22:21.627Z,-9.6
2018-02-27T02:27:21.500Z,-9.4
2018-02-27T02:32:21.706Z,-9.5
2018-02-27T02:37:21.506Z,-9.4
2018-02-27T02:42:21.668Z,-9.5
2018-02-27T02:47:21.723Z,-9.6
2018-02-27T02:52:21.516Z,-9.4
2018-02-27T02:57:21.534Z,-9.3
2018-02-27T03:02:21.692Z,-9.4
2018-02-27T03:07:21.735Z,-9.2
2018-02-27T03:12:21.656Z,-9.3
2018-02-27T03:17:21.699Z,-9.4
2018-02-27T03:22:21.745Z,-9.4
2018-02-27T03:27:21.663Z,-9.3
2018-02-27T03:32:21.688Z,-9.4
2018-02-27T03:37:21.706Z,-9.5
2018-02-27T03:42:21.792Z,-9.4
2018-02-27T03:47:21.683Z,-9.3
2018-02-27T03:52:21.553Z,-9.5
2018-02-27T03:57:21.547Z,-9.5
2018-02-27T04:02:21.696Z,-9.5
2018-02-27T04:07:21.694Z,-9.5
2018-02-27T04:12:21.773Z,-9.5
2018-02-27T04:17:21.555Z,-9.5
2018-02-27T04:22:21.717Z,-9.6
2018-02-27T04:27:21.766Z,-9.6
2018-02-27T04:32:21.568Z,-9.7
2018-02-27T04:37:25.098Z,-9.6
2018-02-27T04:42:30.193Z,-9.6
2018-02-27T04:47:25.292Z,-9.8
2018-02-27T04:52:25.311Z,-9.7
2018-02-27T04:57:25.118Z,-9.7
2018-02-27T05:02:25.114Z,-9.7
2018-02-27T05:07:25.312Z,-9.6
2018-02-27T05:12:25.346Z,-9.6
2018-02-27T05:17:25.252Z,-9.7
2018-02-27T05:22:25.090Z,-9.7
2018-02-27T05:27:25.351Z,-9.8
2018-02-27T05:32:25.113Z,-9.8
2018-02-27T05:37:25.127Z,-9.7
2018-02-27T05:42:25.138Z,-9.6
2018-02-27T05:47:25.134Z,-9.6
2018-02-27T05:52:25.145Z,-9.7
2018-02-27T05:57:25.355Z,-9.8
2018-02-27T06:02:25.155Z,-9.7
2018-02-27T06:07:25.196Z,-9.8
2018-02-27T06:12:25.352Z,-9.9
2018-02-27T06:17:25.311Z,-9.7
2018-02-27T06:22:25.296Z,-9.7
2018-02-27T06:27:25.384Z,-9.7
2018-02-27T06:32:25.153Z,-9.7
2018-02-27T06:37:25.393Z,-9.7
2018-02-27T06:42:25.310Z,-9.8
2018-02-27T06:47:25.390Z,-9.8
2018-02-27T06:52:25.291Z,-9.7
2018-02-27T06:57:25.329Z,-9.7
2018-02-27T07:02:25.376Z,-9.7
2018-02-27T07:07:25.398Z,-9.6
2018-02-27T07:12:25.184Z,-9.4
2018-02-27T07:17:25.384Z,-9.4
2018-02-27T07:22:25.397Z,-9.1
2018-02-27T07:27:25.300Z,-8.8
2018-02-27T07:32:25.372Z,-9
2018-02-27T07:37:25.411Z,-9.1
2018-02-27T07:42:25.456Z,-8.8
2018-02-27T07:47:25.220Z,-8.9
2018-02-27T07:52:25.429Z,-9
2018-02-27T07:57:25.460Z,-8.8
2018-02-27T08:02:25.219Z,-8.6
2018-02-27T08:07:25.388Z,-8.4
2018-02-27T08:12:25.220Z,-7.9
2018-02-27T08:17:25.351Z,-8
2018-02-27T08:22:25.411Z,-7.5
2018-02-27T08:27:25.428Z,-7.7
2018-02-27T08:32:25.385Z,-7.8
2018-02-27T08:37:25.398Z,-7.8
2018-02-27T08:42:25.426Z,-7.9
2018-02-27T08:47:25.552Z,-7.9
2018-02-27T08:52:25.611Z,-7.7
2018-02-27T08:57:25.643Z,-7.3
2018-02-27T09:02:25.597Z,-7.6
2018-02-27T09:07:25.406Z,-7.1
2018-02-27T09:12:25.351Z,-6.5
2018-02-27T09:17:25.590Z,-6.4
2018-02-27T09:22:25.389Z,-6.4
2018-02-27T09:27:30.356Z,-6.3
2018-02-27T09:32:35.690Z,-6.2
2018-02-27T09:37:30.371Z,-5.6
2018-02-27T09:42:30.558Z,-6.2
2018-02-27T09:47:30.505Z,-5.9
2018-02-27T09:52:30.385Z,-5.9
2018-02-27T09:57:30.563Z,-5.7
2018-02-27T10:02:30.644Z,-5.3
2018-02-27T10:07:30.792Z,-5.4
2018-02-27T10:12:30.758Z,-5.1
2018-02-27T10:17:30.748Z,-4.4
2018-02-27T10:22:30.624Z,-4.4
2018-02-27T10:27:30.879Z,-4.8
2018-02-27T10:32:30.663Z,-4.7
2018-02-27T10:37:30.801Z,-5.1
2018-02-27T10:42:30.825Z,-5.6
2018-02-27T10:47:30.665Z,-4.8
2018-02-27T10:52:30.816Z,-4.5
2018-02-27T10:57:30.824Z,-4.1
2018-02-27T11:02:30.852Z,-4.2
2018-02-27T11:07:30.907Z,-4.3
2018-02-27T11:12:30.856Z,-4.7
2018-02-27T11:17:30.872Z,-4.9
2018-02-27T11:22:30.902Z,-5.3
2018-02-27T11:27:31.059Z,-5.9
2018-02-27T11:32:31.076Z,-5.1
2018-02-27T11:37:30.824Z,-5.6
2018-02-27T11:42:30.859Z,-5
2018-02-27T11:47:31.096Z,-4.6
2018-02-27T11:52:30.863Z,-4.8
2018-02-27T11:57:31.057Z,-5.3
2018-02-27T12:02:31.085Z,-6.3
2018-02-27T12:07:31.022Z,-6.3
2018-02-27T12:12:30.881Z,-6.3
2018-02-27T12:17:31.065Z,-6.5
2018-02-27T12:22:31.199Z,-5.8
2018-02-27T12:27:31.147Z,-5.6
2018-02-27T12:32:31.023Z,-5.5
2018-02-27T12:37:31.024Z,-5.5
2018-02-27T12:42:31.035Z,-5.1
2018-02-27T12:47:31.110Z,-4.9
2018-02-27T12:52:31.116Z,-6
2018-02-27T12:57:31.113Z,-5.6
2018-02-27T13:02:31.289Z,-6.2
2018-02-27T13:07:31.511Z,-5.5
2018-02-27T13:12:31.427Z,-5.4
2018-02-27T13:17:31.499Z,-5.7
2018-02-27T13:22:31.520Z,-5.1
2018-02-27T13:27:31.482Z,-4.9
2018-02-27T13:32:31.495Z,-5.3
2018-02-27T13:37:31.750Z,-5.8
2018-02-27T13:42:31.657Z,-6.2
2018-02-27T13:47:31.788Z,-6.8
2018-02-27T13:52:31.858Z,-6
2018-02-27T13:57:31.673Z,-6
2018-02-27T14:02:31.887Z,-6.1
2018-02-27T14:07:31.678Z,-6.4
2018-02-27T14:12:31.693Z,-5.7
2018-02-27T14:17:31.681Z,-5.4
2018-02-27T14:22:37.223Z,-5.6
2018-02-27T14:27:42.310Z,-6.2
2018-02-27T14:32:37.104Z,-6.1
2018-02-27T14:37:37.146Z,-6
2018-02-27T14:42:37.181Z,-6.4
2018-02-27T14:47:37.186Z,-6.4
2018-02-27T14:52:37.143Z,-6.2
2018-02-27T14:57:37.190Z,-6.3
2018-02-27T15:02:37.105Z,-6.3
2018-02-27T15:07:37.144Z,-6.5
2018-02-27T15:12:36.993Z,-6.5
2018-02-27T15:17:37.473Z,-6.8
2018-02-27T15:22:37.241Z,-6.7
2018-02-27T15:27:37.599Z,-6.8
2018-02-27T15:32:38.784Z,-6.8
2018-02-27T15:37:37.439Z,-6.8
2018-02-27T15:42:37.437Z,-6.9
2018-02-27T15:47:37.623Z,-7.1
2018-02-27T15:52:37.674Z,-7
2018-02-27T15:57:37.587Z,-7.1
2018-02-27T16:02:37.618Z,-7.2
2018-02-27T16:07:37.670Z,-7.2
2018-02-27T16:12:37.436Z,-7.3
2018-02-27T16:17:55.578Z,-7.4
2018-02-27T16:22:45.585Z,-7.4
2018-02-27T16:27:45.591Z,-7.4
2018-02-27T16:32:46.125Z,-7.5
2018-02-27T16:37:45.528Z,-7.7
2018-02-27T16:42:46.060Z,-7.7
2018-02-27T16:47:45.585Z,-7.6
2018-02-27T16:52:45.678Z,-7.7
2018-02-27T16:57:47.052Z,-7.8
2018-02-27T17:02:45.665Z,-7.7
2018-02-27T17:07:45.669Z,-7.8
2018-02-27T17:12:45.740Z,-7.8
2018-02-27T17:17:45.804Z,-7.8
2018-02-27T17:22:45.854Z,-7.9
2018-02-27T17:27:46.231Z,-7.9
2018-02-27T17:32:45.746Z,-8
2018-02-27T17:37:45.776Z,-7.9
2018-02-27T17:42:45.776Z,-8
2018-02-27T17:47:48.908Z,-8
2018-02-27T17:52:45.943Z,-8
2018-02-27T17:57:46.693Z,-8.1
2018-02-27T18:02:45.876Z,-8
2018-02-27T18:07:46.607Z,-8
2018-02-27T18:12:45.766Z,-8.1
2018-02-27T18:17:47.368Z,-8.1
2018-02-27T18:22:46.223Z,-8.1
2018-02-27T18:27:45.953Z,-8.1
2018-02-27T18:32:46.527Z,-8.1
2018-02-27T18:37:45.931Z,-8.1
2018-02-27T18:42:45.790Z,-8.1
2018-02-27T18:47:45.795Z,-8.1
2018-02-27T18:52:45.907Z,-8.1
2018-02-27T18:57:45.816Z,-8.1
2018-02-27T19:02:45.770Z,-8.2
2018-02-27T19:07:45.773Z,-8.2
2018-02-27T19:12:48.046Z,-8.2
2018-02-27T19:17:53.130Z,-8.2
2018-02-27T19:22:48.060Z,-8.3
2018-02-27T19:27:49.250Z,-8.3
2018-02-27T19:32:48.154Z,-8.3
2018-02-27T19:37:48.037Z,-8.3
2018-02-27T19:42:48.225Z,-8.3
2018-02-27T19:47:48.027Z,-8.4
2018-02-27T19:52:48.159Z,-8.5
2018-02-27T19:57:48.201Z,-8.5
2018-02-27T20:02:48.034Z,-8.7
2018-02-27T20:07:48.053Z,-8.7
2018-02-27T20:12:48.240Z,-8.8
2018-02-27T20:17:48.268Z,-8.8
2018-02-27T20:22:48.123Z,-8.8
2018-02-27T20:27:48.154Z,-8.9
2018-02-27T20:32:48.254Z,-9
2018-02-27T20:37:48.612Z,-9
2018-02-27T20:42:48.520Z,-8.9
2018-02-27T20:47:48.628Z,-9
2018-02-27T20:52:48.528Z,-9.2
2018-02-27T20:57:48.830Z,-9.1
2018-02-27T21:02:48.874Z,-9.2
2018-02-27T21:07:49.028Z,-9.3
2018-02-27T21:12:49.040Z,-9.3
2018-02-27T21:17:49.094Z,-9.3
2018-02-27T21:22:49.311Z,-9.4
2018-02-27T21:27:49.097Z,-9.5
2018-02-27T21:32:49.288Z,-9.5
2018-02-27T21:37:49.330Z,-9.5
2018-02-27T21:42:49.128Z,-9.5
2018-02-27T21:47:49.208Z,-9.5
2018-02-27T21:52:49.233Z,-9.5
2018-02-27T21:57:49.448Z,-9.5
2018-02-27T22:02:49.227Z,-9.6
2018-02-27T22:07:49.503Z,-9.6
2018-02-27T22:12:49.501Z,-9.6
2018-02-27T22:17:49.520Z,-9.5
2018-02-27T22:22:49.724Z,-9.7
2018-02-27T22:27:49.658Z,-9.6
2018-02-27T22:32:49.674Z,-9.6
2018-02-27T22:37:49.719Z,-9.7
2018-02-27T22:42:49.550Z,-9.7
2018-02-27T22:47:49.668Z,-9.7
2018-02-27T22:52:49.560Z,-9.7
2018-02-27T22:57:49.746Z,-9.6
2018-02-27T23:02:49.533Z,-9.6
2018-02-27T23:07:49.536Z,-9.6
2018-02-27T23:12:49.743Z,-9.6
2018-02-27T23:17:49.782Z,-9.6
2018-02-27T23:22:49.680Z,-9.6
2018-02-27T23:27:49.713Z,-9.6
2018-02-27T23:32:49.771Z,-9.5
2018-02-27T23:37:49.834Z,-9.5
2018-02-27T23:42:49.743Z,-9.4
2018-02-27T23:47:49.875Z,-9.4
2018-02-27T23:52:49.727Z,-9.4
2018-02-27T23:57:49.960Z,-9.4
